Time;durP1;ratioP1;P1;durP2;ratioP2;P2;SDS_P1;SDS_P2;PMS_P1;PMS_P2;Temp;Humidity;BMP_temperature;BMP_pressure;BME280_temperature;BME280_humidity;BME280_pressure;Samples;Min_cycle;Max_cycle;Signal;HPM_P1;HPM_P2
2021/12/09 00:01:22;;;;;;;37.10;19.20;;;;;;;9.13;100.00;100034.23;1663496;86;21574;-66
2021/12/09 00:03:53;;;;;;;35.60;18.92;;;;;;;9.16;100.00;100037.11;1664210;86;21077;-66
2021/12/09 00:06:26;;;;;;;39.33;19.73;;;;;;;9.16;100.00;100034.08;1662040;85;21118;-66
2021/12/09 00:08:53;;;;;;;34.90;18.17;;;;;;;9.23;100.00;100041.08;1663628;85;21065;-66
2021/12/09 00:11:20;;;;;;;43.70;19.62;;;;;;;9.21;100.00;100036.46;1641097;86;21073;-66
2021/12/09 00:13:48;;;;;;;42.30;19.17;;;;;;;9.21;100.00;100043.70;1663595;86;21014;-65
2021/12/09 00:16:15;;;;;;;41.70;18.77;;;;;;;9.24;100.00;100047.86;1663063;86;21502;-66
2021/12/09 00:18:43;;;;;;;39.27;19.37;;;;;;;9.27;100.00;100053.33;1662968;86;21137;-66
2021/12/09 00:21:12;;;;;;;34.15;18.85;;;;;;;9.29;100.00;100060.05;1663451;86;21104;-66
2021/12/09 00:23:38;;;;;;;42.53;18.65;;;;;;;9.27;100.00;100064.42;1663259;85;21110;-66
2021/12/09 00:26:06;;;;;;;34.15;18.20;;;;;;;9.24;100.00;100064.55;1662461;86;21138;-66
2021/12/09 00:28:33;;;;;;;40.63;19.37;;;;;;;9.21;100.00;100055.72;1662897;86;21046;-66
2021/12/09 00:31:00;;;;;;;35.15;19.87;;;;;;;9.24;100.00;100063.27;1662504;86;21086;-66
2021/12/09 00:33:26;;;;;;;42.98;21.52;;;;;;;9.27;100.00;100058.01;1663737;86;21100;-65
2021/12/09 00:35:57;;;;;;;50.15;22.67;;;;;;;9.27;100.00;100058.47;1663955;85;21197;-66
2021/12/09 00:38:38;;;;;;;45.17;23.50;;;;;;;9.27;100.00;100059.30;1663240;86;21840;-66
2021/12/09 00:41:14;;;;;;;45.73;23.92;;;;;;;9.28;100.00;100060.94;1663740;84;21037;-66
2021/12/09 00:43:42;;;;;;;42.50;21.52;;;;;;;9.26;100.00;100056.79;1663546;86;21541;-66
2021/12/09 00:46:10;;;;;;;45.80;20.88;;;;;;;9.22;100.00;100057.37;1662957;85;21053;-66
2021/12/09 00:48:37;;;;;;;44.88;21.95;;;;;;;9.21;100.00;100060.40;1662554;86;21070;-66
2021/12/09 00:51:07;;;;;;;45.73;21.68;;;;;;;9.19;100.00;100048.54;1643964;86;21062;-66
2021/12/09 00:53:36;;;;;;;46.53;23.57;;;;;;;9.20;100.00;100050.19;1662447;86;21118;-66
2021/12/09 00:56:05;;;;;;;47.73;23.83;;;;;;;9.19;100.00;100051.93;1663084;86;21074;-66
2021/12/09 00:58:32;;;;;;;41.35;23.07;;;;;;;9.21;100.00;100048.02;1662991;86;21589;-66
2021/12/09 01:00:59;;;;;;;53.65;26.15;;;;;;;9.20;100.00;100047.19;1663151;86;21069;-66
2021/12/09 01:03:26;;;;;;;51.18;24.95;;;;;;;9.22;100.00;100049.66;1663465;86;21121;-66
2021/12/09 01:05:54;;;;;;;48.55;24.60;;;;;;;9.23;100.00;100047.03;1662637;86;21090;-66
2021/12/09 01:08:20;;;;;;;49.23;24.50;;;;;;;9.23;100.00;100048.31;1663129;86;21073;-65
2021/12/09 01:10:48;;;;;;;49.23;22.90;;;;;;;9.23;100.00;100045.75;1663200;85;21046;-66
2021/12/09 01:13:15;;;;;;;42.20;21.37;;;;;;;9.26;100.00;100048.62;1654321;86;21106;-66
2021/12/09 01:15:42;;;;;;;47.40;21.62;;;;;;;9.26;100.00;100044.77;1642572;86;21076;-66
2021/12/09 01:18:09;;;;;;;45.17;21.10;;;;;;;9.27;100.00;100054.61;1661261;84;21479;-66
2021/12/09 01:20:36;;;;;;;41.92;19.87;;;;;;;9.27;100.00;100053.33;1660009;86;21073;-66
2021/12/09 01:23:04;;;;;;;39.23;20.05;;;;;;;9.29;100.00;100055.38;1657802;86;21526;-66
2021/12/09 01:25:36;;;;;;;40.10;19.02;;;;;;;9.29;100.00;100051.06;1658322;86;21121;-66
2021/12/09 01:28:00;;;;;;;40.15;19.50;;;;;;;9.29;100.00;100043.81;1661018;85;21565;-66
2021/12/09 01:30:27;;;;;;;37.25;18.92;;;;;;;9.31;100.00;100048.44;1657803;86;21041;-66
2021/12/09 01:32:55;;;;;;;44.00;20.60;;;;;;;9.32;100.00;100044.94;1657895;86;21132;-66
2021/12/09 01:35:29;;;;;;;42.62;19.05;;;;;;;9.34;100.00;100045.70;1655059;86;21117;-66
2021/12/09 01:38:01;;;;;;;39.98;18.80;;;;;;;9.34;100.00;100049.09;1653946;85;21548;-66
2021/12/09 01:40:29;;;;;;;49.85;21.90;;;;;;;9.36;100.00;100053.71;1659099;86;21057;-66
2021/12/09 01:42:58;;;;;;;50.08;24.07;;;;;;;9.40;100.00;100052.67;1655243;85;21085;-66
2021/12/09 01:45:26;;;;;;;44.15;23.85;;;;;;;9.43;100.00;100050.43;1655150;85;21074;-66
2021/12/09 01:47:54;;;;;;;44.40;23.80;;;;;;;9.41;100.00;100059.48;1658008;86;21128;-66
2021/12/09 01:50:22;;;;;;;44.25;22.93;;;;;;;9.41;100.00;100062.05;1660819;85;21065;-66
2021/12/09 01:52:49;;;;;;;48.98;26.33;;;;;;;9.45;100.00;100068.31;1659033;86;21041;-66
2021/12/09 01:55:18;;;;;;;44.85;23.50;;;;;;;9.49;100.00;100065.56;1657356;84;21553;-66
2021/12/09 01:57:50;;;;;;;39.48;22.10;;;;;;;9.47;100.00;100063.52;1660923;86;21102;-66
2021/12/09 02:00:22;;;;;;;42.08;22.70;;;;;;;9.48;100.00;100060.48;1655332;85;21495;-66
2021/12/09 02:02:50;;;;;;;45.50;21.00;;;;;;;9.49;100.00;100064.27;1658508;84;21503;-66
2021/12/09 02:05:19;;;;;;;45.55;21.25;;;;;;;9.48;100.00;100067.73;1655134;85;21026;-66
2021/12/09 02:07:47;;;;;;;49.48;22.30;;;;;;;9.51;100.00;100061.61;1655049;84;21101;-66
2021/12/09 02:10:18;;;;;;;61.20;25.25;;;;;;;9.53;100.00;100061.94;1658568;85;21644;-66
2021/12/09 02:12:49;;;;;;;59.48;24.82;;;;;;;9.58;100.00;100063.83;1652924;85;21065;-66
2021/12/09 02:15:21;;;;;;;60.95;26.07;;;;;;;9.61;100.00;100062.84;1660729;84;21022;-66
2021/12/09 02:17:49;;;;;;;61.00;25.40;;;;;;;9.65;100.00;100067.39;1659249;84;21118;-66
2021/12/09 02:20:16;;;;;;;65.22;26.27;;;;;;;9.68;100.00;100062.12;1656550;84;21061;-66
2021/12/09 02:22:47;;;;;;;61.10;25.23;;;;;;;9.69;100.00;100066.34;1655044;84;21065;-66
2021/12/09 02:25:16;;;;;;;63.10;26.57;;;;;;;9.69;100.00;100067.63;1658021;85;21790;-66
2021/12/09 02:27:43;;;;;;;64.85;26.20;;;;;;;9.69;100.00;100072.33;1655249;84;21033;-66
2021/12/09 02:30:12;;;;;;;62.40;25.70;;;;;;;9.71;100.00;100073.09;1657841;85;21108;-66
2021/12/09 02:32:39;;;;;;;65.95;26.40;;;;;;;9.75;100.00;100074.61;1663301;84;21072;-66
2021/12/09 02:35:07;;;;;;;64.45;26.30;;;;;;;9.76;100.00;100072.41;1639995;85;21061;-66
2021/12/09 02:37:35;;;;;;;62.55;25.40;;;;;;;9.77;100.00;100076.66;1654455;85;22019;-66
2021/12/09 02:40:05;;;;;;;69.22;26.75;;;;;;;9.78;100.00;100082.62;1653440;85;21042;-66
2021/12/09 02:42:34;;;;;;;71.25;27.10;;;;;;;9.81;100.00;100078.17;1659358;85;21072;-66
2021/12/09 02:45:04;;;;;;;61.58;25.92;;;;;;;9.85;100.00;100086.55;1658138;85;21054;-66
2021/12/09 02:47:31;;;;;;;58.58;25.20;;;;;;;9.88;100.00;100088.16;1655426;86;21057;-66
2021/12/09 02:49:57;;;;;;;59.35;25.32;;;;;;;9.89;100.00;100087.24;1662305;84;21098;-67
2021/12/09 02:52:24;;;;;;;64.92;25.40;;;;;;;9.90;100.00;100092.78;1655373;85;21049;-67
2021/12/09 02:54:52;;;;;;;58.02;25.40;;;;;;;9.95;100.00;100091.63;1659768;85;21053;-67
2021/12/09 02:57:19;;;;;;;60.33;24.75;;;;;;;9.92;100.00;100098.22;1655507;85;21123;-67
2021/12/09 02:59:46;;;;;;;57.48;24.70;;;;;;;9.96;100.00;100097.63;1657703;84;21562;-67
2021/12/09 03:02:13;;;;;;;54.63;22.80;;;;;;;9.97;100.00;100103.12;1655337;86;21070;-67
2021/12/09 03:04:48;;;;;;;55.12;22.10;;;;;;;9.98;100.00;100104.81;1658002;86;21609;-66
2021/12/09 03:07:27;;;;;;;57.00;23.75;;;;;;;10.01;100.00;100110.62;1656507;85;21122;-67
2021/12/09 03:10:02;;;;;;;50.88;23.18;;;;;;;10.03;100.00;100117.80;1658718;84;21605;-68
2021/12/09 03:12:33;;;;;;;55.60;22.65;;;;;;;10.03;100.00;100116.52;1656836;85;21549;-68
2021/12/09 03:15:03;;;;;;;49.25;22.15;;;;;;;10.05;100.00;100116.91;1660168;85;21109;-67
2021/12/09 03:17:32;;;;;;;49.98;21.80;;;;;;;10.06;100.00;100120.70;1658196;86;21065;-68
2021/12/09 03:20:00;;;;;;;46.55;21.30;;;;;;;10.07;100.00;100122.35;1655784;85;21152;-67
2021/12/09 03:22:27;;;;;;;51.90;21.30;;;;;;;10.09;100.00;100126.97;1657605;86;21054;-67
2021/12/09 03:24:54;;;;;;;48.05;21.48;;;;;;;10.08;100.00;100123.21;1661057;86;21207;-67
2021/12/09 03:27:21;;;;;;;46.88;20.35;;;;;;;10.10;100.00;100129.11;1661267;85;21557;-67
2021/12/09 03:29:48;;;;;;;44.95;21.45;;;;;;;10.11;100.00;100130.77;1658941;86;21076;-68
2021/12/09 03:32:19;;;;;;;46.48;21.00;;;;;;;10.13;100.00;100130.23;1658032;86;21108;-68
2021/12/09 03:34:46;;;;;;;46.02;21.12;;;;;;;10.09;100.00;100130.83;1663569;86;21058;-68
2021/12/09 03:37:22;;;;;;;49.18;20.95;;;;;;;10.12;100.00;100131.98;1663985;86;21085;-67
2021/12/09 03:39:51;;;;;;;47.78;21.97;;;;;;;10.15;100.00;100130.53;1662482;86;21125;-68
2021/12/09 03:42:23;;;;;;;46.28;21.23;;;;;;;10.16;100.00;100136.53;1662326;85;21027;-68
2021/12/09 03:44:52;;;;;;;44.00;21.00;;;;;;;10.15;100.00;100131.81;1663674;86;21140;-67
2021/12/09 03:47:23;;;;;;;47.23;20.88;;;;;;;10.14;100.00;100138.34;1664061;86;21061;-68
2021/12/09 03:49:50;;;;;;;49.38;20.92;;;;;;;10.14;100.00;100146.06;1663861;86;21114;-67
2021/12/09 03:52:17;;;;;;;45.03;19.32;;;;;;;10.16;100.00;100146.36;1662352;86;21054;-68
2021/12/09 03:54:46;;;;;;;42.10;19.82;;;;;;;10.15;100.00;100147.25;1662673;86;21073;-67
2021/12/09 03:57:16;;;;;;;37.08;18.85;;;;;;;10.13;100.00;100145.20;1662719;85;21116;-67
2021/12/09 03:59:43;;;;;;;40.65;19.30;;;;;;;10.11;100.00;100150.05;1663408;86;21082;-68
2021/12/09 04:02:12;;;;;;;33.53;17.95;;;;;;;10.11;100.00;100149.59;1663267;85;21121;-67
2021/12/09 04:04:40;;;;;;;32.53;16.90;;;;;;;10.12;100.00;100152.56;1662922;86;21526;-67
2021/12/09 04:07:07;;;;;;;33.67;17.15;;;;;;;10.13;100.00;100153.38;1663538;86;21030;-67
2021/12/09 04:09:35;;;;;;;29.00;16.55;;;;;;;10.13;100.00;100150.34;1662871;86;21503;-67
2021/12/09 04:12:02;;;;;;;31.85;16.50;;;;;;;10.15;100.00;100156.25;1663233;86;21057;-67
2021/12/09 04:14:30;;;;;;;29.95;16.48;;;;;;;10.16;100.00;100151.97;1662813;86;21125;-67
2021/12/09 04:16:56;;;;;;;32.00;16.70;;;;;;;10.18;100.00;100160.44;1663026;86;21053;-67
2021/12/09 04:19:23;;;;;;;29.70;17.05;;;;;;;10.19;100.00;100165.48;1663071;86;21106;-67
2021/12/09 04:21:50;;;;;;;31.93;16.57;;;;;;;10.20;100.00;100167.17;1663303;86;21525;-67
2021/12/09 04:24:17;;;;;;;33.42;16.90;;;;;;;10.22;100.00;100161.95;1663343;86;21030;-67
2021/12/09 04:26:49;;;;;;;36.17;17.35;;;;;;;10.22;100.00;100161.50;1663328;86;21188;-68
2021/12/09 04:29:17;;;;;;;30.37;17.48;;;;;;;10.22;100.00;100165.35;1663530;86;21033;-67
2021/12/09 04:31:47;;;;;;;31.93;17.48;;;;;;;10.22;100.00;100160.67;1662767;86;21050;-66
2021/12/09 04:34:16;;;;;;;31.62;17.27;;;;;;;10.23;100.00;100163.61;1663660;86;21077;-67
2021/12/09 04:36:42;;;;;;;36.58;18.42;;;;;;;10.21;100.00;100166.24;1640713;86;21047;-67
2021/12/09 04:39:09;;;;;;;32.15;17.23;;;;;;;10.21;100.00;100171.39;1663930;86;21549;-67
2021/12/09 04:41:37;;;;;;;33.60;16.82;;;;;;;10.21;100.00;100172.67;1663083;86;21644;-67
2021/12/09 04:44:06;;;;;;;30.82;17.75;;;;;;;10.23;100.00;100176.47;1663075;85;21558;-67
2021/12/09 04:46:36;;;;;;;29.30;16.60;;;;;;;10.20;100.00;100174.06;1664185;86;21135;-67
2021/12/09 04:49:05;;;;;;;32.63;17.60;;;;;;;10.22;100.00;100182.53;1659616;86;21144;-67
2021/12/09 04:51:33;;;;;;;32.13;17.35;;;;;;;10.25;100.00;100189.27;1664038;86;21057;-67
2021/12/09 04:54:01;;;;;;;32.20;17.95;;;;;;;10.29;100.00;100192.89;1663640;86;21092;-67
2021/12/09 04:56:29;;;;;;;27.80;17.05;;;;;;;10.22;100.00;100195.39;1662473;86;21582;-67
2021/12/09 04:58:56;;;;;;;32.90;17.65;;;;;;;10.27;100.00;100206.28;1662551;86;21578;-67
2021/12/09 05:01:24;;;;;;;24.67;15.15;;;;;;;10.24;100.00;100206.45;1662518;86;21154;-67
2021/12/09 05:03:51;;;;;;;26.80;15.53;;;;;;;10.16;100.00;100208.09;1662930;86;21038;-67
2021/12/09 05:06:20;;;;;;;27.15;15.13;;;;;;;10.18;100.00;100211.42;1662781;86;21014;-67
2021/12/09 05:08:48;;;;;;;23.77;14.10;;;;;;;10.27;100.00;100217.86;1663559;86;21057;-67
2021/12/09 05:13:58;;;;;;;17.57;10.70;;;;;;;10.29;100.00;100217.80;1662706;86;21534;-67
2021/12/09 05:16:26;;;;;;;15.75;8.95;;;;;;;10.23;100.00;100224.88;1663260;86;21077;-67
2021/12/09 05:19:01;;;;;;;16.75;9.25;;;;;;;10.18;100.00;100226.86;1662353;85;21078;-67
2021/12/09 05:21:37;;;;;;;16.10;9.40;;;;;;;10.18;100.00;100225.56;1640027;86;21092;-67
2021/12/09 05:24:10;;;;;;;15.28;8.68;;;;;;;10.19;100.00;100231.08;1664575;86;21046;-68
2021/12/09 05:26:50;;;;;;;15.20;8.48;;;;;;;10.11;100.00;100232.34;1658326;85;21059;-68
2021/12/09 05:29:17;;;;;;;16.75;8.60;;;;;;;10.11;100.00;100235.75;1631708;87;21060;-68
2021/12/09 05:34:31;;;;;;;14.60;7.95;;;;;;;10.07;100.00;100246.26;1628957;87;21074;-68
2021/12/09 05:36:57;;;;;;;13.80;8.25;;;;;;;10.15;100.00;100249.30;1687251;84;21009;-68
2021/12/09 05:39:24;;;;;;;13.32;7.22;;;;;;;10.11;100.00;100254.21;1687210;84;21172;-67
2021/12/09 05:41:53;;;;;;;12.82;7.60;;;;;;;10.03;100.00;100260.53;1691263;84;21033;-68
2021/12/09 05:44:20;;;;;;;11.10;7.22;;;;;;;10.08;100.00;100265.95;1689019;84;21178;-67
2021/12/09 05:46:48;;;;;;;11.03;6.92;;;;;;;10.01;100.00;100275.19;1689163;83;21041;-67
2021/12/09 05:49:15;;;;;;;11.18;7.20;;;;;;;10.00;100.00;100273.54;1691575;83;21041;-66
2021/12/09 05:51:44;;;;;;;12.28;7.25;;;;;;;10.02;100.00;100286.34;1690608;84;21063;-66
2021/12/09 05:54:12;;;;;;;10.98;6.70;;;;;;;10.05;100.00;100294.36;1690719;84;21664;-67
2021/12/09 05:56:39;;;;;;;13.32;7.25;;;;;;;9.98;100.00;100300.23;1691167;85;21045;-67
2021/12/09 05:59:07;;;;;;;10.30;6.70;;;;;;;10.02;100.00;100302.59;1686607;83;21009;-67
2021/12/09 06:01:36;;;;;;;13.18;7.30;;;;;;;10.03;100.00;100309.39;1688851;84;21040;-67
2021/12/09 06:04:04;;;;;;;13.45;7.53;;;;;;;10.01;100.00;100310.37;1683869;84;21173;-66
2021/12/09 06:06:32;;;;;;;12.63;7.40;;;;;;;10.10;100.00;100309.97;1686439;84;21053;-67
2021/12/09 06:09:00;;;;;;;10.85;6.33;;;;;;;10.12;100.00;100318.91;1688539;83;21072;-66
2021/12/09 06:11:27;;;;;;;12.53;7.33;;;;;;;10.12;100.00;100331.31;1660452;86;21077;-66
2021/12/09 06:13:54;;;;;;;10.65;6.42;;;;;;;10.08;100.00;100334.92;1667552;86;21087;-67
2021/12/09 06:16:22;;;;;;;15.72;8.13;;;;;;;10.07;100.00;100338.38;1683359;84;21059;-67
2021/12/09 06:18:50;;;;;;;15.45;9.78;;;;;;;10.12;100.00;100340.31;1691354;83;21079;-67
2021/12/09 06:21:19;;;;;;;25.20;14.25;;;;;;;10.23;100.00;100339.36;1692474;84;21450;-67
2021/12/09 06:23:47;;;;;;;28.92;16.05;;;;;;;10.15;100.00;100350.91;1690423;84;21471;-67
2021/12/09 06:26:13;;;;;;;38.35;20.12;;;;;;;10.22;100.00;100346.70;1682983;84;21142;-67
2021/12/09 06:28:40;;;;;;;31.07;17.45;;;;;;;10.25;100.00;100351.33;1691189;84;21005;-67
2021/12/09 06:31:07;;;;;;;29.85;16.15;;;;;;;10.29;100.00;100363.16;1686255;84;21019;-67
2021/12/09 06:33:34;;;;;;;24.92;14.03;;;;;;;10.32;100.00;100365.61;1657971;85;21032;-67
2021/12/09 06:36:02;;;;;;;28.25;13.20;;;;;;;10.30;100.00;100365.70;1655297;86;21596;-67
2021/12/09 06:38:29;;;;;;;27.93;12.60;;;;;;;10.31;100.00;100372.49;1662036;86;21056;-66
2021/12/09 06:40:57;;;;;;;27.32;13.20;;;;;;;10.35;100.00;100366.30;1664246;86;21624;-66
2021/12/09 06:43:23;;;;;;;20.30;11.93;;;;;;;10.34;100.00;100372.80;1660025;86;20999;-66
2021/12/09 06:45:56;;;;;;;21.10;11.90;;;;;;;10.34;100.00;100371.52;1660819;86;21124;-67
2021/12/09 06:48:24;;;;;;;22.42;11.55;;;;;;;10.34;100.00;100381.81;1663217;85;21542;-67
2021/12/09 06:50:51;;;;;;;20.35;9.43;;;;;;;10.39;100.00;100385.02;1663566;86;21149;-68
2021/12/09 06:53:19;;;;;;;15.45;8.58;;;;;;;10.38;100.00;100384.62;1632093;85;21071;-67
2021/12/09 06:55:46;;;;;;;17.37;7.58;;;;;;;10.42;100.00;100392.16;1662784;86;21529;-67
2021/12/09 06:58:13;;;;;;;13.62;6.95;;;;;;;10.44;100.00;100397.21;1679549;85;21079;-67
2021/12/09 07:00:45;;;;;;;9.63;5.22;;;;;;;10.44;100.00;100404.93;1680787;84;20985;-67
2021/12/09 07:03:10;;;;;;;10.75;5.50;;;;;;;10.45;100.00;100409.19;1687931;84;21529;-67
2021/12/09 07:05:38;;;;;;;9.18;5.30;;;;;;;10.47;100.00;100416.39;1688787;85;21132;-67
2021/12/09 07:08:05;;;;;;;8.05;4.42;;;;;;;10.47;100.00;100418.96;1675798;85;21044;-66
2021/12/09 07:10:33;;;;;;;7.10;4.78;;;;;;;10.49;100.00;100427.91;1688007;83;21497;-67
2021/12/09 07:13:01;;;;;;;8.78;4.60;;;;;;;10.49;100.00;100433.05;1688263;84;21041;-68
2021/12/09 07:15:30;;;;;;;9.38;4.70;;;;;;;10.50;100.00;100438.14;1689806;83;21016;-67
2021/12/09 07:17:59;;;;;;;8.35;4.40;;;;;;;10.54;100.00;100441.39;1689028;83;21107;-67
2021/12/09 07:20:29;;;;;;;6.72;3.90;;;;;;;10.54;100.00;100452.97;1662831;85;21052;-67
2021/12/09 07:22:58;;;;;;;7.20;3.40;;;;;;;10.55;100.00;100446.94;1634934;87;21092;-66
2021/12/09 07:25:27;;;;;;;3.67;2.87;;;;;;;10.50;100.00;100453.59;1661233;86;21590;-67
2021/12/09 07:27:55;;;;;;;4.00;2.85;;;;;;;10.54;100.00;100458.98;1662972;86;21049;-66
2021/12/09 07:30:23;;;;;;;4.03;2.70;;;;;;;10.58;100.00;100458.36;1629885;87;21055;-66
2021/12/09 07:32:51;;;;;;;3.65;2.52;;;;;;;10.66;100.00;100463.17;1681954;84;21062;-67
2021/12/09 07:35:18;;;;;;;4.78;2.75;;;;;;;10.59;100.00;100469.88;1692332;84;21104;-66
2021/12/09 07:37:45;;;;;;;3.83;2.60;;;;;;;10.62;100.00;100471.48;1691290;83;21587;-67
2021/12/09 07:40:16;;;;;;;4.08;2.37;;;;;;;10.52;100.00;100480.52;1685583;84;21039;-67
2021/12/09 07:42:43;;;;;;;3.15;2.20;;;;;;;10.51;100.00;100486.12;1690997;84;21499;-67
2021/12/09 07:45:12;;;;;;;2.77;2.50;;;;;;;10.51;100.00;100497.70;1691843;83;21567;-66
2021/12/09 07:47:40;;;;;;;5.75;2.72;;;;;;;10.59;100.00;100494.34;1685720;83;21071;-66
2021/12/09 07:50:13;;;;;;;4.15;2.77;;;;;;;10.65;100.00;100496.27;1677794;84;21031;-66
2021/12/09 07:52:41;;;;;;;3.80;2.40;;;;;;;10.67;100.00;100501.73;1684425;84;21134;-66
2021/12/09 07:55:11;;;;;;;4.20;2.62;;;;;;;10.69;100.00;100499.92;1658920;86;21091;-67
2021/12/09 07:57:39;;;;;;;3.20;2.40;;;;;;;10.70;100.00;100507.19;1661593;84;21040;-67
2021/12/09 08:00:17;;;;;;;2.90;2.33;;;;;;;10.80;100.00;100513.12;1643757;86;21086;-67
2021/12/09 08:02:46;;;;;;;3.42;2.62;;;;;;;10.77;100.00;100516.32;1660517;86;21571;-67
2021/12/09 08:05:14;;;;;;;3.90;2.20;;;;;;;10.78;100.00;100516.69;1650479;86;21633;-66
2021/12/09 08:07:43;;;;;;;5.30;2.40;;;;;;;10.76;100.00;100529.63;1683561;84;21056;-67
2021/12/09 08:10:13;;;;;;;4.20;2.67;;;;;;;10.87;100.00;100525.73;1629087;87;21111;-66
2021/12/09 08:12:40;;;;;;;5.12;3.00;;;;;;;10.94;100.00;100530.55;1636920;86;21522;-66
2021/12/09 08:15:10;;;;;;;7.83;4.05;;;;;;;10.93;100.00;100535.75;1681294;84;21027;-66
2021/12/09 08:20:14;;;;;;;6.33;3.83;;;;;;;10.96;100.00;100549.80;1628730;87;21136;-66
2021/12/09 08:22:43;;;;;;;7.12;3.92;;;;;;;10.99;100.00;100549.21;1631604;86;21110;-67
2021/12/09 08:25:13;;;;;;;4.72;3.17;;;;;;;11.02;100.00;100557.25;1630761;87;21108;-66
2021/12/09 08:27:43;;;;;;;4.87;3.40;;;;;;;10.99;100.00;100550.50;1652995;86;21085;-66
2021/12/09 08:30:13;;;;;;;6.00;4.12;;;;;;;11.07;100.00;100552.73;1655306;86;21049;-66
2021/12/09 08:32:42;;;;;;;4.90;4.20;;;;;;;11.20;100.00;100551.25;1658586;85;21021;-66
2021/12/09 08:35:09;;;;;;;8.60;4.90;;;;;;;11.26;100.00;100554.01;1655323;86;21042;-66
2021/12/09 08:37:37;;;;;;;7.60;4.72;;;;;;;11.40;100.00;100553.38;1652594;86;21061;-67
2021/12/09 08:40:07;;;;;;;6.90;4.62;;;;;;;11.50;100.00;100554.61;1662368;85;21108;-66
2021/12/09 08:42:36;;;;;;;4.85;3.60;;;;;;;11.61;100.00;100551.05;1652825;85;21018;-66
2021/12/09 08:45:08;;;;;;;6.08;4.22;;;;;;;11.71;100.00;100557.89;1659381;85;21108;-66
2021/12/09 08:47:33;;;;;;;5.53;3.90;;;;;;;11.73;100.00;100561.23;1631133;87;21071;-67
2021/12/09 08:50:00;;;;;;;10.30;8.63;;;;;;;11.76;100.00;100561.53;1686967;84;21525;-66
2021/12/09 08:52:27;;;;;;;6.97;4.65;;;;;;;11.81;100.00;100564.28;1685270;85;21108;-66
2021/12/09 08:54:54;;;;;;;5.60;3.77;;;;;;;11.80;100.00;100563.91;1689627;84;21146;-66
2021/12/09 08:57:22;;;;;;;6.00;4.08;;;;;;;11.73;100.00;100562.98;1693415;83;21548;-67
2021/12/09 08:59:50;;;;;;;5.25;3.90;;;;;;;11.68;100.00;100561.93;1679847;84;21584;-66
2021/12/09 09:02:16;;;;;;;3.92;3.20;;;;;;;11.79;100.00;100558.36;1687953;84;21639;-66
2021/12/09 09:04:43;;;;;;;6.20;3.20;;;;;;;11.75;100.00;100558.13;1680645;83;21083;-67
2021/12/09 09:07:10;;;;;;;4.62;3.55;;;;;;;11.75;100.00;100559.88;1681119;84;21066;-66
2021/12/09 09:09:38;;;;;;;6.17;3.42;;;;;;;11.88;100.00;100562.70;1681658;84;21067;-66
2021/12/09 09:12:10;;;;;;;5.28;3.30;;;;;;;11.87;100.00;100559.75;1634984;86;21530;-66
2021/12/09 09:14:37;;;;;;;7.22;3.27;;;;;;;11.83;100.00;100567.62;1689263;85;21008;-66
2021/12/09 09:17:04;;;;;;;7.30;3.27;;;;;;;11.97;100.00;100566.16;1676668;84;21099;-66
2021/12/09 09:19:31;;;;;;;8.55;4.17;;;;;;;12.07;100.00;100564.80;1684209;84;21050;-66
2021/12/09 09:21:58;;;;;;;6.30;3.98;;;;;;;12.17;100.00;100572.92;1680476;84;21610;-66
2021/12/09 09:24:25;;;;;;;5.33;2.87;;;;;;;12.22;100.00;100566.59;1685536;84;21055;-66
2021/12/09 09:26:52;;;;;;;5.00;2.20;;;;;;;12.14;100.00;100567.90;1674919;84;21094;-66
2021/12/09 09:29:19;;;;;;;3.17;2.10;;;;;;;12.07;100.00;100562.67;1680389;84;21086;-66
2021/12/09 09:31:47;;;;;;;3.50;2.62;;;;;;;12.13;100.00;100563.66;1690910;85;21078;-66
2021/12/09 09:34:13;;;;;;;7.30;4.70;;;;;;;12.23;100.00;100561.00;1685356;84;21549;-66
2021/12/09 09:36:44;;;;;;;7.10;4.58;;;;;;;12.26;100.00;100565.17;1685407;84;21082;-66
2021/12/09 09:39:19;;;;;;;9.33;5.08;;;;;;;12.10;100.00;100563.34;1680254;84;21024;-66
2021/12/09 09:42:07;;;;;;;10.25;5.55;;;;;;;11.84;100.00;100565.90;1689254;85;21111;-67
2021/12/09 09:44:34;;;;;;;9.98;5.28;;;;;;;11.79;100.00;100558.36;1684593;84;21070;-66
2021/12/09 09:47:00;;;;;;;9.68;6.12;;;;;;;11.71;100.00;100560.94;1690886;85;21059;-66
2021/12/09 09:49:28;;;;;;;16.17;8.30;;;;;;;11.65;100.00;100559.95;1687489;84;21070;-66
2021/12/09 09:51:58;;;;;;;15.05;9.20;;;;;;;11.67;100.00;100568.44;1684162;84;21047;-66
2021/12/09 09:54:26;;;;;;;17.98;11.57;;;;;;;11.60;100.00;100552.44;1690561;85;21082;-66
2021/12/09 09:56:53;;;;;;;19.45;10.60;;;;;;;11.61;100.00;100561.83;1679812;84;21105;-66
2021/12/09 09:59:20;;;;;;;15.65;10.48;;;;;;;11.54;100.00;100561.75;1675050;84;21062;-66
2021/12/09 10:01:52;;;;;;;15.65;10.20;;;;;;;11.50;100.00;100555.07;1680226;83;21051;-66
2021/12/09 10:04:32;;;;;;;16.97;10.13;;;;;;;11.58;100.00;100557.66;1685447;83;21083;-66
2021/12/09 10:06:49;;;;;;;12.78;8.93;;;;;;;11.63;100.00;100563.88;1684927;84;21035;-66
2021/12/09 10:09:16;;;;;;;14.60;8.98;;;;;;;11.77;100.00;100561.47;1685693;83;21079;-66
2021/12/09 10:11:44;;;;;;;13.58;7.85;;;;;;;11.78;100.00;100566.16;1685337;84;21534;-66
2021/12/09 10:14:19;;;;;;;14.15;8.23;;;;;;;11.77;100.00;100565.80;1682649;84;21058;-66
2021/12/09 10:17:08;;;;;;;13.30;8.35;;;;;;;11.80;100.00;100560.48;1680100;84;21066;-66
2021/12/09 10:19:49;;;;;;;13.25;8.05;;;;;;;11.82;100.00;100561.27;1686425;84;21543;-66
2021/12/09 10:22:20;;;;;;;15.55;8.13;;;;;;;11.68;100.00;100559.35;1686214;83;21491;-66
2021/12/09 10:24:51;;;;;;;12.05;7.42;;;;;;;11.65;100.00;100563.34;1690698;85;21051;-66
2021/12/09 10:27:28;;;;;;;13.53;8.48;;;;;;;11.69;100.00;100570.03;1690794;84;21051;-66
2021/12/09 10:30:14;;;;;;;15.15;9.45;;;;;;;11.64;100.00;100565.56;1680325;83;21547;-67
2021/12/09 10:32:44;;;;;;;11.80;7.67;;;;;;;11.65;100.00;100563.34;1680095;84;21058;-66
2021/12/09 10:35:19;;;;;;;13.28;7.87;;;;;;;11.40;100.00;100567.55;1674966;84;21079;-66
2021/12/09 10:37:49;;;;;;;15.75;8.83;;;;;;;11.42;100.00;100565.73;1688499;84;21036;-66
2021/12/09 10:40:21;;;;;;;15.13;8.63;;;;;;;11.40;100.00;100566.26;1677873;84;21043;-66
2021/12/09 10:42:54;;;;;;;17.92;10.35;;;;;;;11.33;100.00;100565.69;1686250;84;21138;-66
2021/12/09 10:45:32;;;;;;;19.17;10.63;;;;;;;11.32;100.00;100569.64;1678128;84;21586;-66
2021/12/09 10:48:11;;;;;;;17.17;10.32;;;;;;;11.27;100.00;100571.58;1685668;83;21051;-66
2021/12/09 10:51:08;;;;;;;26.05;11.60;;;;;;;11.23;100.00;100568.30;1679295;84;21059;-66
2021/12/09 10:55:54;;;;;;;22.07;10.40;;;;;;;11.16;100.00;100565.64;1676090;84;21138;-66
2021/12/09 10:58:29;;;;;;;17.95;10.05;;;;;;;11.16;100.00;100563.06;1675247;84;21007;-66
2021/12/09 11:01:00;;;;;;;17.05;9.93;;;;;;;11.19;100.00;100568.92;1686257;84;21019;-66
2021/12/09 11:03:34;;;;;;;16.25;8.75;;;;;;;11.12;100.00;100562.83;1676210;83;21018;-66
2021/12/09 11:06:12;;;;;;;13.83;8.68;;;;;;;11.16;100.00;100565.18;1688766;83;21047;-66
2021/12/09 11:08:54;;;;;;;14.65;9.30;;;;;;;11.12;100.00;100566.69;1683601;83;21086;-66
2021/12/09 11:11:43;;;;;;;16.05;8.90;;;;;;;11.14;100.00;100564.88;1685721;84;21019;-66
2021/12/09 11:14:20;;;;;;;15.40;9.15;;;;;;;11.14;100.00;100564.41;1685742;84;21036;-66
2021/12/09 11:17:06;;;;;;;15.08;8.13;;;;;;;11.15;100.00;100567.82;1690693;85;21170;-66
2021/12/09 11:22:05;;;;;;;15.65;7.92;;;;;;;11.09;100.00;100577.12;1685706;84;21079;-66
2021/12/09 11:24:39;;;;;;;10.43;7.08;;;;;;;11.02;100.00;100578.69;1681218;84;21048;-67
2021/12/09 11:27:12;;;;;;;13.05;6.83;;;;;;;10.99;100.00;100580.13;1690439;83;22613;-66
2021/12/09 11:29:48;;;;;;;10.43;6.25;;;;;;;10.96;100.00;100582.82;1677575;84;21106;-66
2021/12/09 11:32:35;;;;;;;10.50;5.92;;;;;;;10.91;100.00;100582.63;1680145;84;21079;-66